Time;durP1;ratioP1;P1;durP2;ratioP2;P2;SDS_P1;SDS_P2;PMS_P1;PMS_P2;Temp;Humidity;BMP_temperature;BMP_pressure;BME280_temperature;BME280_humidity;BME280_pressure;Samples;Min_cycle;Max_cycle;Signal;HPM_P1;HPM_P2
2022/03/01 00:01:29;;;;;;;0.00;0.00;;;;;;;9.81;89.70;101137.47;6158597;23;20005;-76
2022/03/01 00:03:54;;;;;;;0.00;0.00;;;;;;;9.69;89.76;101142.16;6161566;23;20011;-75
2022/03/01 00:06:20;;;;;;;0.00;0.00;;;;;;;9.57;89.77;101140.28;6161283;23;20033;-75
2022/03/01 00:08:45;;;;;;;0.00;0.00;;;;;;;9.45;89.60;101134.03;6157555;23;20001;-75
2022/03/01 00:11:18;;;;;;;0.00;0.00;;;;;;;9.44;89.52;101156.94;6160616;23;20009;-76
2022/03/01 00:13:46;;;;;;;0.00;0.00;;;;;;;9.39;90.70;101154.94;6159153;23;20036;-77
2022/03/01 00:16:13;;;;;;;0.00;0.00;;;;;;;9.35;90.02;101158.38;6157570;23;20009;-77
2022/03/01 00:18:39;;;;;;;0.00;0.00;;;;;;;9.33;89.61;101171.44;6134017;23;20005;-77
2022/03/01 00:21:05;;;;;;;0.00;0.00;;;;;;;9.26;89.46;101161.47;6160020;23;20576;-76
2022/03/01 00:23:32;;;;;;;0.00;0.00;;;;;;;9.28;89.47;101166.69;6159047;23;20420;-76
2022/03/01 00:25:59;;;;;;;0.00;0.00;;;;;;;9.24;89.17;101163.63;6186083;23;20084;-75
2022/03/01 00:28:27;;;;;;;0.00;0.00;;;;;;;9.21;89.24;101174.19;6185160;23;20012;-75
2022/03/01 00:30:53;;;;;;;0.00;0.00;;;;;;;9.16;88.86;101183.09;6180466;23;20012;-75
2022/03/01 00:33:20;;;;;;;0.00;0.00;;;;;;;9.12;88.77;101181.88;6158429;23;20005;-75
2022/03/01 00:35:46;;;;;;;0.00;0.00;;;;;;;9.12;88.90;101187.34;6159600;23;20063;-75
2022/03/01 00:38:32;;;;;;;0.00;0.00;;;;;;;9.08;88.68;101192.47;6158242;23;20068;-75
2022/03/01 00:40:58;;;;;;;0.00;0.00;;;;;;;9.07;88.51;101198.16;6158306;23;20059;-77
2022/03/01 00:43:24;;;;;;;0.00;0.00;;;;;;;9.07;88.17;101200.91;6186805;23;20119;-74
2022/03/01 00:45:52;;;;;;;0.00;0.00;;;;;;;9.03;88.61;101194.25;6135041;23;20015;-75
2022/03/01 00:48:20;;;;;;;0.00;0.00;;;;;;;9.01;88.23;101190.91;6188103;23;20013;-75
2022/03/01 00:50:46;;;;;;;0.00;0.00;;;;;;;8.97;88.04;101193.28;6162969;23;20056;-75
2022/03/01 00:53:11;;;;;;;0.00;0.00;;;;;;;8.97;88.97;101195.19;6161532;23;20028;-75
2022/03/01 00:55:37;;;;;;;0.00;0.00;;;;;;;8.94;88.72;101195.66;6185991;23;20084;-76
2022/03/01 00:58:03;;;;;;;0.00;0.00;;;;;;;8.86;88.58;101189.50;6186171;23;20442;-77
2022/03/01 01:00:30;;;;;;;0.00;0.00;;;;;;;8.88;88.22;101206.44;6134930;23;20113;-77
2022/03/01 01:02:56;;;;;;;0.00;0.00;;;;;;;8.83;88.32;101205.47;6184442;23;20005;-76
2022/03/01 01:05:22;;;;;;;0.00;0.00;;;;;;;8.80;88.41;101206.78;6157327;23;20008;-75
2022/03/01 01:07:51;;;;;;;0.00;0.00;;;;;;;8.75;88.17;101214.84;6182879;23;20664;-77
2022/03/01 01:10:17;;;;;;;0.00;0.00;;;;;;;8.72;88.26;101215.31;6158075;23;20071;-78
2022/03/01 01:12:46;;;;;;;0.00;0.00;;;;;;;8.69;87.65;101221.25;6157659;23;20763;-77
2022/03/01 01:15:16;;;;;;;0.00;0.00;;;;;;;8.67;87.83;101226.09;6159056;23;20147;-78
2022/03/01 01:17:42;;;;;;;0.00;0.00;;;;;;;8.63;88.00;101222.16;6158553;23;20029;-77
2022/03/01 01:20:09;;;;;;;0.00;0.00;;;;;;;8.61;87.72;101213.41;6157820;23;20646;-78
2022/03/01 01:22:40;;;;;;;0.00;0.00;;;;;;;8.60;87.64;101212.56;6182308;23;20491;-76
2022/03/01 01:25:13;;;;;;;0.00;0.00;;;;;;;8.60;88.30;101226.22;6134450;23;20769;-74
2022/03/01 01:27:43;;;;;;;0.00;0.00;;;;;;;8.59;87.63;101223.72;6157912;23;20011;-74
2022/03/01 01:30:16;;;;;;;0.00;0.00;;;;;;;8.55;87.47;101232.34;6183625;23;20009;-73
2022/03/01 01:32:42;;;;;;;0.00;0.00;;;;;;;8.56;88.26;101225.81;6159226;23;20001;-74
2022/03/01 01:35:09;;;;;;;0.00;0.00;;;;;;;8.54;88.00;101225.25;6160065;23;20005;-73
2022/03/01 01:37:35;;;;;;;0.00;0.00;;;;;;;8.52;87.58;101224.63;6157887;23;20013;-72
2022/03/01 01:40:05;;;;;;;0.00;0.00;;;;;;;8.51;87.85;101224.84;6134514;23;20083;-73
2022/03/01 01:42:30;;;;;;;0.00;0.00;;;;;;;8.48;87.54;101215.25;6158428;23;20036;-73
2022/03/01 01:44:56;;;;;;;0.00;0.00;;;;;;;8.53;87.68;101239.94;6135176;23;20058;-74
2022/03/01 01:47:21;;;;;;;0.00;0.00;;;;;;;8.48;87.67;101233.50;6158704;23;20005;-74
2022/03/01 01:49:47;;;;;;;0.00;0.00;;;;;;;8.48;87.51;101234.31;6132664;23;20001;-73
2022/03/01 01:52:15;;;;;;;0.00;0.00;;;;;;;8.49;87.76;101236.00;6184168;23;20016;-74
2022/03/01 01:54:53;;;;;;;;;;;;;;;;;;;;;
2022/03/01 01:57:22;;;;;;;0.00;0.00;;;;;;;8.52;87.44;101238.25;6184885;23;20495;-75
2022/03/01 01:59:49;;;;;;;0.00;0.00;;;;;;;8.53;87.36;101241.81;6158024;23;20001;-75
2022/03/01 02:02:17;;;;;;;0.00;0.00;;;;;;;8.50;87.33;101240.41;6132535;23;20009;-74
2022/03/01 02:04:43;;;;;;;0.00;0.00;;;;;;;8.50;86.92;101240.41;6157973;23;20085;-74
2022/03/01 02:07:10;;;;;;;0.00;0.00;;;;;;;8.51;87.72;101250.25;6157262;23;20005;-73
2022/03/01 02:09:35;;;;;;;0.00;0.00;;;;;;;8.53;86.98;101248.09;6110528;23;20343;-72
2022/03/01 02:12:02;;;;;;;0.00;0.00;;;;;;;8.52;87.53;101254.59;6156809;23;20005;-73
2022/03/01 02:14:30;;;;;;;0.00;0.00;;;;;;;8.50;87.29;101245.84;6159300;23;20017;-73
2022/03/01 02:16:56;;;;;;;0.00;0.00;;;;;;;8.49;87.16;101232.44;6184482;23;20001;-73
2022/03/01 02:19:21;;;;;;;0.00;0.00;;;;;;;8.52;86.83;101243.69;6183635;23;20011;-74
2022/03/01 02:21:52;;;;;;;0.00;0.00;;;;;;;8.52;87.28;101249.16;6183662;23;20049;-72
2022/03/01 02:24:19;;;;;;;0.00;0.00;;;;;;;8.50;87.15;101237.66;6180230;23;20149;-72
2022/03/01 02:26:45;;;;;;;0.00;0.00;;;;;;;8.52;87.57;101240.16;6155345;23;20013;-73
2022/03/01 02:29:10;;;;;;;0.00;0.00;;;;;;;8.52;87.13;101238.25;6183086;23;20087;-73
2022/03/01 02:31:37;;;;;;;0.00;0.00;;;;;;;8.51;87.43;101252.97;6108225;23;20424;-73
2022/03/01 02:34:03;;;;;;;0.00;0.00;;;;;;;8.51;87.22;101250.25;6181196;23;20036;-72
2022/03/01 02:36:29;;;;;;;0.00;0.00;;;;;;;8.51;86.79;101247.50;6156623;23;20035;-73
2022/03/01 02:38:54;;;;;;;0.00;0.00;;;;;;;8.51;87.23;101244.78;6182597;23;20005;-73
2022/03/01 02:41:20;;;;;;;0.00;0.00;;;;;;;8.53;86.88;101242.66;6154048;23;20076;-74
2022/03/01 02:43:45;;;;;;;0.00;0.00;;;;;;;8.51;87.46;101236.63;6156755;23;20009;-73
2022/03/01 02:46:11;;;;;;;0.00;0.00;;;;;;;8.51;87.04;101241.22;6156637;23;20489;-72
2022/03/01 02:48:36;;;;;;;0.00;0.00;;;;;;;8.51;86.93;101246.66;6182633;23;20001;-73
2022/03/01 02:51:02;;;;;;;0.00;0.00;;;;;;;8.48;86.91;101247.94;6156624;23;20036;-73
2022/03/01 02:53:28;;;;;;;0.00;0.00;;;;;;;8.48;87.06;101247.94;6185688;23;20324;-71
2022/03/01 02:55:54;;;;;;;0.00;0.00;;;;;;;8.48;86.84;101245.22;6143883;23;20020;-70
2022/03/01 02:58:19;;;;;;;0.00;0.00;;;;;;;8.46;87.46;101244.63;6156824;23;20522;-70
2022/03/01 03:00:45;;;;;;;0.00;0.00;;;;;;;8.46;86.55;101247.38;6181932;23;20084;-71
2022/03/01 03:03:11;;;;;;;0.00;0.00;;;;;;;8.46;87.11;101241.91;6182617;23;20404;-70
2022/03/01 03:05:37;;;;;;;0.00;0.00;;;;;;;8.46;86.83;101241.09;6157193;23;20037;-69
2022/03/01 03:08:03;;;;;;;0.00;0.00;;;;;;;8.46;86.94;101239.19;6180780;23;20388;-69
2022/03/01 03:10:28;;;;;;;0.00;0.00;;;;;;;8.47;86.70;101251.75;6155383;23;20001;-70
2022/03/01 03:12:54;;;;;;;0.43;0.43;;;;;;;8.47;86.77;101254.50;6181526;23;20001;-70
2022/03/01 03:15:19;;;;;;;0.00;0.00;;;;;;;8.47;86.99;101257.22;6130842;23;20720;-70
2022/03/01 03:17:45;;;;;;;0.98;0.98;;;;;;;8.47;86.58;101262.66;6183003;23;20009;-71
2022/03/01 03:20:10;;;;;;;0.00;0.00;;;;;;;8.46;86.73;101257.44;6179750;23;20302;-71
2022/03/01 03:22:36;;;;;;;0.00;0.00;;;;;;;8.46;86.96;101255.53;6182865;23;20017;-70
2022/03/01 03:25:02;;;;;;;0.00;0.00;;;;;;;8.49;86.73;101249.63;6133483;23;20380;-72
2022/03/01 03:27:32;;;;;;;0.00;0.00;;;;;;;8.51;86.89;101252.97;6183791;23;20001;-71
2022/03/01 03:29:58;;;;;;;0.00;0.00;;;;;;;8.51;86.56;101241.22;6183155;23;20005;-73
2022/03/01 03:32:23;;;;;;;0.00;0.00;;;;;;;8.52;86.83;101237.44;6113109;23;20305;-73
2022/03/01 03:34:49;;;;;;;0.00;0.00;;;;;;;8.50;86.53;101251.28;6157563;23;20023;-72
2022/03/01 03:37:14;;;;;;;0.00;0.00;;;;;;;8.52;86.40;101259.25;6157666;23;20016;-73
2022/03/01 03:39:40;;;;;;;0.00;0.00;;;;;;;8.50;85.85;101255.94;6182834;23;20077;-73
2022/03/01 03:42:06;;;;;;;0.00;0.00;;;;;;;8.48;86.38;101261.59;6133109;23;20001;-73
2022/03/01 03:44:31;;;;;;;0.00;0.00;;;;;;;8.50;86.32;101267.66;6156400;23;20064;-73
2022/03/01 03:46:56;;;;;;;0.00;0.00;;;;;;;8.48;86.35;101261.59;6156428;23;20328;-70
2022/03/01 03:49:25;;;;;;;0.00;0.00;;;;;;;8.48;86.33;101258.84;6153836;23;20060;-71
2022/03/01 03:51:50;;;;;;;0.00;0.00;;;;;;;8.48;86.63;101258.84;6136104;23;20012;-76
2022/03/01 03:54:16;;;;;;;0.00;0.00;;;;;;;8.45;87.00;101255.78;6162122;23;20017;-75
2022/03/01 03:56:41;;;;;;;0.00;0.00;;;;;;;8.46;86.42;101252.81;6159586;23;20076;-76
2022/03/01 03:59:07;;;;;;;0.00;0.00;;;;;;;8.46;86.30;101250.09;6160067;23;20416;-75
2022/03/01 04:01:34;;;;;;;0.00;0.00;;;;;;;8.44;86.65;101245.91;6186569;23;20016;-75
2022/03/01 04:04:00;;;;;;;0.00;0.00;;;;;;;8.47;86.98;101254.50;6160409;23;20009;-75
2022/03/01 04:06:26;;;;;;;0.00;0.00;;;;;;;8.47;87.07;101245.47;6135499;23;20043;-76
2022/03/01 04:08:52;;;;;;;0.00;0.00;;;;;;;8.50;86.85;101254.03;6161076;23;20013;-75
2022/03/01 04:11:17;;;;;;;0.00;0.00;;;;;;;8.51;86.59;101263.03;6182354;23;20009;-75
2022/03/01 04:13:43;;;;;;;0.00;0.00;;;;;;;8.47;86.67;101257.22;6155658;23;20009;-72
2022/03/01 04:16:08;;;;;;;0.00;0.00;;;;;;;8.42;86.37;101259.75;6182561;23;20009;-71
2022/03/01 04:18:34;;;;;;;0.00;0.00;;;;;;;8.41;86.14;101252.66;6196398;23;20005;-74
2022/03/01 04:20:59;;;;;;;0.00;0.00;;;;;;;8.38;86.47;101258.56;6161204;23;20043;-73
2022/03/01 04:23:25;;;;;;;0.00;0.00;;;;;;;8.37;86.45;101262.34;6136317;23;20024;-73
2022/03/01 04:25:50;;;;;;;0.00;0.00;;;;;;;8.40;86.38;101261.91;6112187;23;20013;-72
2022/03/01 04:28:16;;;;;;;0.00;0.00;;;;;;;8.39;86.86;101263.78;6156763;23;20009;-71
2022/03/01 04:30:41;;;;;;;0.00;0.00;;;;;;;8.35;86.03;101264.47;6185452;23;20017;-72
2022/03/01 04:33:07;;;;;;;0.00;0.00;;;;;;;8.33;86.07;101255.69;6158168;23;20011;-71
2022/03/01 04:35:33;;;;;;;0.00;0.00;;;;;;;8.29;86.61;101259.94;6158591;23;20313;-72
2022/03/01 04:37:59;;;;;;;0.00;0.00;;;;;;;8.32;86.50;101267.66;6156068;23;20070;-73
2022/03/01 04:40:25;;;;;;;0.00;0.00;;;;;;;8.31;86.19;101263.25;6186445;23;20364;-73
2022/03/01 04:42:50;;;;;;;0.00;0.00;;;;;;;8.27;86.70;101253.91;6133519;23;20088;-71
2022/03/01 04:45:16;;;;;;;0.00;0.00;;;;;;;8.29;86.31;101254.50;6184304;23;20009;-73
2022/03/01 04:47:42;;;;;;;0.00;0.00;;;;;;;8.23;86.33;101252.69;6157607;23;20422;-73
2022/03/01 04:50:08;;;;;;;0.00;0.00;;;;;;;8.23;86.36;101255.41;6158823;23;20009;-73
2022/03/01 04:52:34;;;;;;;0.00;0.00;;;;;;;8.21;86.58;101264.66;6133248;23;20012;-71
2022/03/01 04:54:59;;;;;;;0.00;0.00;;;;;;;8.25;86.09;101264.19;6158076;23;20020;-72
2022/03/01 04:57:25;;;;;;;0.00;0.00;;;;;;;8.28;86.83;101272.75;6159239;23;20085;-74
2022/03/01 04:59:53;;;;;;;0.00;0.00;;;;;;;8.27;86.09;101272.97;6157991;23;20013;-72
2022/03/01 05:02:18;;;;;;;0.00;0.00;;;;;;;8.29;86.31;101270.84;6156680;23;20012;-72
2022/03/01 05:04:44;;;;;;;0.00;0.00;;;;;;;8.29;86.32;101265.41;6158431;23;20009;-73
2022/03/01 05:07:09;;;;;;;0.00;0.00;;;;;;;8.30;86.43;101273.34;6158548;23;20462;-73
2022/03/01 05:09:35;;;;;;;0.00;0.00;;;;;;;8.29;86.32;101265.41;6182702;23;20009;-72
2022/03/01 05:12:00;;;;;;;0.00;0.00;;;;;;;8.33;86.08;101272.88;6133299;23;20016;-74
2022/03/01 05:14:28;;;;;;;0.00;0.00;;;;;;;8.36;86.22;101271.59;6184604;23;20424;-72
2022/03/01 05:16:54;;;;;;;0.00;0.00;;;;;;;8.39;86.10;101271.13;6132415;23;20009;-73
2022/03/01 05:19:19;;;;;;;0.00;0.00;;;;;;;8.38;86.14;101274.91;6153408;23;20013;-72
2022/03/01 05:21:45;;;;;;;0.00;0.00;;;;;;;8.38;86.05;101274.91;6182377;23;20032;-72
2022/03/01 05:24:11;;;;;;;0.00;0.00;;;;;;;8.37;86.15;101278.72;6159041;23;20483;-70
2022/03/01 05:26:37;;;;;;;0.00;0.00;;;;;;;8.39;85.70;101271.94;6151339;23;20017;-72
2022/03/01 05:29:03;;;;;;;0.00;0.00;;;;;;;8.40;86.28;101267.34;6151704;23;20470;-70
2022/03/01 05:31:28;;;;;;;0.00;0.00;;;;;;;8.39;85.70;101271.13;6151303;23;20080;-71
2022/03/01 05:33:54;;;;;;;0.00;0.00;;;;;;;8.38;85.27;101264.00;6123386;23;20049;-72
2022/03/01 05:36:20;;;;;;;2.20;1.13;;;;;;;8.36;85.83;101263.41;6126145;23;20421;-73
2022/03/01 05:38:48;;;;;;;0.00;0.00;;;;;;;8.34;85.69;101260.09;6152602;23;20033;-71
2022/03/01 05:41:14;;;;;;;0.00;0.00;;;;;;;8.37;86.02;101256.91;6125618;23;20006;-70
2022/03/01 05:43:39;;;;;;;0.00;0.00;;;;;;;8.39;86.02;101262.94;6149649;23;20029;-70
2022/03/01 05:46:05;;;;;;;0.00;0.00;;;;;;;8.37;85.33;101273.25;6124946;23;20017;-71
2022/03/01 05:48:31;;;;;;;0.00;0.00;;;;;;;8.34;85.45;101274.53;6125242;23;20023;-73
2022/03/01 05:50:57;;;;;;;0.00;0.00;;;;;;;8.35;85.30;101275.38;6153279;23;20020;-70
2022/03/01 05:53:23;;;;;;;0.00;0.00;;;;;;;8.35;85.29;101275.38;6152253;23;20010;-71
2022/03/01 05:55:51;;;;;;;0.00;0.00;;;;;;;8.33;85.49;101272.88;6152036;23;20010;-71
2022/03/01 05:58:17;;;;;;;0.00;0.00;;;;;;;8.37;85.37;101273.25;6126793;23;20020;-72
2022/03/01 06:00:42;;;;;;;0.00;0.00;;;;;;;8.40;85.01;101283.69;6148586;23;20017;-72
2022/03/01 06:03:08;;;;;;;0.00;0.00;;;;;;;8.34;85.14;101268.28;6125065;23;20013;-70
2022/03/01 06:05:41;;;;;;;0.00;0.00;;;;;;;8.38;85.06;101280.34;6151786;23;20417;-71
2022/03/01 06:08:09;;;;;;;0.00;0.00;;;;;;;8.39;84.72;101276.56;6150996;23;20092;-71
2022/03/01 06:10:36;;;;;;;0.00;0.00;;;;;;;8.38;84.61;101274.91;6125662;23;20017;-72
2022/03/01 06:13:04;;;;;;;0.00;0.00;;;;;;;8.38;84.69;101285.81;6124831;23;20329;-73
2022/03/01 06:15:32;;;;;;;0.00;0.00;;;;;;;8.36;85.07;101296.13;6126099;23;20010;-72
2022/03/01 06:17:57;;;;;;;0.00;0.00;;;;;;;8.38;84.88;101291.25;6126122;23;20063;-73
2022/03/01 06:20:23;;;;;;;0.00;0.00;;;;;;;8.36;84.30;101282.50;6100661;23;20009;-73
2022/03/01 06:22:48;;;;;;;0.00;0.00;;;;;;;8.37;84.25;101295.06;6131228;23;20372;-73
2022/03/01 06:25:14;;;;;;;0.00;0.00;;;;;;;8.36;85.13;101305.13;6180568;23;20013;-73
2022/03/01 06:27:40;;;;;;;0.00;0.00;;;;;;;8.32;84.95;101303.94;6182259;23;20005;-72
2022/03/01 06:30:11;;;;;;;0.00;0.00;;;;;;;8.39;84.42;101325.63;6178851;23;20037;-72
2022/03/01 06:32:37;;;;;;;0.00;0.00;;;;;;;8.37;83.98;101322.31;6156498;23;20349;-73
2022/03/01 06:35:04;;;;;;;0.00;0.00;;;;;;;8.34;84.31;101322.78;6155768;23;20068;-72
2022/03/01 06:37:30;;;;;;;0.00;0.00;;;;;;;8.33;84.11;101315.66;6154296;23;20013;-72
2022/03/01 06:39:56;;;;;;;0.00;0.00;;;;;;;8.36;84.61;101320.66;6180766;23;20020;-72
2022/03/01 06:42:21;;;;;;;0.00;0.00;;;;;;;8.36;84.20;101315.19;6180220;23;20009;-71
2022/03/01 06:44:47;;;;;;;0.00;0.00;;;;;;;8.38;84.26;101323.97;6179352;23;20008;-72
2022/03/01 06:47:16;;;;;;;0.00;0.00;;;;;;;8.35;84.24;101335.31;6180659;23;20005;-71
2022/03/01 06:49:41;;;;;;;0.00;0.00;;;;;;;8.30;83.91;101338.75;6131410;23;20043;-72
2022/03/01 06:52:07;;;;;;;0.00;0.00;;;;;;;8.33;84.21;101349.19;6129195;23;20008;-69
2022/03/01 06:54:36;;;;;;;0.20;0.20;;;;;;;8.30;84.18;101338.75;6152050;23;20013;-71
2022/03/01 06:57:01;;;;;;;0.00;0.00;;;;;;;8.35;84.39;101343.50;6155967;23;20068;-72
2022/03/01 06:59:27;;;;;;;0.00;0.00;;;;;;;8.33;84.17;101342.91;6179848;23;20060;-71
2022/03/01 07:01:54;;;;;;;0.00;0.00;;;;;;;8.35;83.97;101335.31;6155080;23;20020;-72
2022/03/01 07:04:19;;;;;;;0.00;0.00;;;;;;;8.38;83.83;101337.59;6129315;23;20093;-71
2022/03/01 07:06:45;;;;;;;0.00;0.00;;;;;;;8.40;83.83;101340.94;6198939;23;20085;-71
2022/03/01 07:09:10;;;;;;;0.00;0.00;;;;;;;8.41;83.85;101339.88;6201792;23;20005;-71
2022/03/01 07:11:36;;;;;;;0.00;0.00;;;;;;;8.43;83.51;101343.19;6151339;23;20062;-71
2022/03/01 07:14:02;;;;;;;0.00;0.00;;;;;;;8.45;83.85;101359.34;6200052;23;20043;-71
2022/03/01 07:16:27;;;;;;;0.00;0.00;;;;;;;8.48;83.62;101362.44;6200179;23;20005;-72
2022/03/01 07:18:54;;;;;;;0.00;0.00;;;;;;;8.48;84.21;101359.72;6122543;23;20013;-71
2022/03/01 07:21:20;;;;;;;0.00;0.00;;;;;;;8.53;84.15;101368.06;6133757;23;20071;-72
2022/03/01 07:23:56;;;;;;;;;;;;;;;;;;;;;
2022/03/01 07:26:22;;;;;;;0.00;0.00;;;;;;;8.60;83.39;101372.59;6181522;23;20076;-78
2022/03/01 07:28:49;;;;;;;0.00;0.00;;;;;;;8.63;83.31;101374.84;6158025;23;20039;-71
2022/03/01 07:31:17;;;;;;;0.00;0.00;;;;;;;8.56;82.92;101355.88;6180311;23;20012;-70
2022/03/01 07:33:43;;;;;;;0.00;0.00;;;;;;;8.54;82.94;101366.16;6182169;23;20084;-71
2022/03/01 07:36:09;;;;;;;0.00;0.00;;;;;;;8.56;83.05;101367.59;6156462;23;20071;-71
2022/03/01 07:38:34;;;;;;;0.00;0.00;;;;;;;8.59;82.80;101368.22;6154685;23;20017;-75
2022/03/01 07:41:00;;;;;;;0.00;0.00;;;;;;;8.55;83.13;101371.38;6156832;23;20005;-76
2022/03/01 07:43:26;;;;;;;0.00;0.00;;;;;;;8.50;83.07;101360.34;6158325;23;20011;-74
2022/03/01 07:45:51;;;;;;;0.00;0.00;;;;;;;8.47;82.97;101365.41;6157493;23;20017;-74
2022/03/01 07:48:17;;;;;;;0.00;0.00;;;;;;;8.46;83.02;101363.75;6156642;23;20020;-75
2022/03/01 07:50:42;;;;;;;0.00;0.00;;;;;;;8.45;83.48;101356.63;6155820;23;20753;-74
2022/03/01 07:53:08;;;;;;;0.00;0.00;;;;;;;8.46;83.53;101359.13;6132298;23;20008;-74
2022/03/01 07:55:34;;;;;;;0.00;0.00;;;;;;;8.50;83.38;101360.34;6155966;23;20047;-74
2022/03/01 07:58:00;;;;;;;0.00;0.00;;;;;;;8.54;83.14;101350.66;6184774;23;20363;-75
2022/03/01 08:00:27;;;;;;;0.00;0.00;;;;;;;8.57;83.10;101360.22;6158214;23;20016;-75
2022/03/01 08:02:52;;;;;;;0.00;0.00;;;;;;;8.59;83.41;101351.84;6182484;23;20313;-73
2022/03/01 08:05:19;;;;;;;0.00;0.00;;;;;;;8.61;83.27;101355.16;6159073;23;20092;-75
2022/03/01 08:07:44;;;;;;;0.00;0.00;;;;;;;8.60;82.87;101353.50;6160200;23;20001;-75
2022/03/01 08:10:10;;;;;;;0.00;0.00;;;;;;;8.67;83.52;101354.25;6160634;23;20041;-76
2022/03/01 08:12:35;;;;;;;0.00;0.00;;;;;;;8.64;82.79;101354.72;6137988;23;20009;-75
2022/03/01 08:15:01;;;;;;;0.00;0.00;;;;;;;8.73;82.81;101359.63;6188424;23;20109;-76
2022/03/01 08:17:26;;;;;;;0.00;0.00;;;;;;;8.77;82.72;101376.34;6163385;23;20043;-74
2022/03/01 08:19:51;;;;;;;0.00;0.00;;;;;;;8.77;82.87;101362.69;6186247;23;20020;-70
2022/03/01 08:22:17;;;;;;;0.00;0.00;;;;;;;8.81;82.73;101361.19;6187083;23;20005;-74
2022/03/01 08:24:43;;;;;;;0.00;0.00;;;;;;;8.84;82.59;101359.88;6186049;23;20021;-74
2022/03/01 08:27:08;;;;;;;0.00;0.00;;;;;;;8.88;82.69;101358.38;6110501;23;20313;-74
2022/03/01 08:29:34;;;;;;;0.00;0.00;;;;;;;8.89;82.40;101357.28;6188089;23;20071;-73
2022/03/01 08:32:00;;;;;;;0.00;0.00;;;;;;;8.82;82.01;101357.41;6187677;23;20059;-73
2022/03/01 08:34:29;;;;;;;0.00;0.00;;;;;;;8.70;82.08;101359.22;6158998;23;20056;-74
2022/03/01 08:36:54;;;;;;;0.00;0.00;;;;;;;8.72;82.16;101370.75;6135186;23;20032;-74
2022/03/01 08:39:20;;;;;;;0.00;0.00;;;;;;;8.74;82.11;101368.63;6186507;23;20420;-75
2022/03/01 08:41:45;;;;;;;0.00;0.00;;;;;;;8.78;81.61;101372.56;6187468;23;20087;-76
2022/03/01 08:44:11;;;;;;;0.00;0.00;;;;;;;8.80;81.73;101364.13;6185302;23;20009;-74
2022/03/01 08:46:37;;;;;;;0.00;0.00;;;;;;;8.82;82.05;101365.56;6183318;23;20036;-74
2022/03/01 08:49:02;;;;;;;0.00;0.00;;;;;;;8.84;81.64;101373.53;6155781;23;20339;-75
2022/03/01 08:51:28;;;;;;;0.00;0.00;;;;;;;8.88;81.48;101375.56;6188349;23;20035;-75
2022/03/01 08:53:54;;;;;;;0.00;0.00;;;;;;;8.95;81.53;101371.91;6160951;23;20005;-75
2022/03/01 08:56:21;;;;;;;0.00;0.00;;;;;;;9.00;81.21;101369.31;6187722;23;20032;-74
2022/03/01 08:58:47;;;;;;;0.00;0.00;;;;;;;9.04;81.73;101376.81;6188998;23;20009;-74
2022/03/01 09:01:18;;;;;;;0.00;0.00;;;;;;;9.02;81.11;101362.56;6157910;23;20013;-75
2022/03/01 09:03:52;;;;;;;0.00;0.00;;;;;;;9.08;81.06;101366.25;6132810;23;20001;-75
2022/03/01 09:06:20;;;;;;;0.00;0.00;;;;;;;9.24;81.21;101376.50;6183540;23;20006;-75
2022/03/01 09:08:46;;;;;;;0.00;0.00;;;;;;;9.26;80.90;101363.44;6184712;23;20013;-75
2022/03/01 09:11:11;;;;;;;0.00;0.00;;;;;;;9.39;80.49;101377.97;6193632;23;20001;-74
2022/03/01 09:13:38;;;;;;;0.00;0.00;;;;;;;9.41;80.40;101375.81;6179667;23;20009;-74
2022/03/01 09:16:05;;;;;;;0.00;0.00;;;;;;;9.42;80.33;101386.50;6182161;23;20048;-75
2022/03/01 09:18:30;;;;;;;0.00;0.00;;;;;;;9.39;79.91;101389.69;6207439;23;20009;-73
2022/03/01 09:20:56;;;;;;;0.00;0.00;;;;;;;9.38;79.90;101392.66;6200817;23;20061;-74
2022/03/01 09:23:24;;;;;;;0.00;0.00;;;;;;;9.39;79.33;101395.16;6201390;23;20064;-75
2022/03/01 09:25:49;;;;;;;0.00;0.00;;;;;;;9.43;79.44;101411.91;6161816;23;20012;-75
2022/03/01 09:28:17;;;;;;;0.00;0.00;;;;;;;9.41;79.13;101412.13;6162048;23;20064;-73
2022/03/01 09:30:42;;;;;;;0.00;0.00;;;;;;;9.44;79.36;101416.28;6184620;23;20009;-73
2022/03/01 09:33:08;;;;;;;0.00;0.00;;;;;;;9.46;78.67;101422.34;6186428;23;20013;-73
2022/03/01 09:35:35;;;;;;;0.00;0.00;;;;;;;9.45;78.54;101409.78;6182227;23;20012;-72
2022/03/01 09:38:03;;;;;;;0.00;0.00;;;;;;;9.52;78.30;101410.50;6182745;23;20011;-73
2022/03/01 09:40:31;;;;;;;0.00;0.00;;;;;;;9.54;78.56;101404.81;6133088;23;20072;-73
2022/03/01 09:42:57;;;;;;;0.00;0.00;;;;;;;9.48;78.18;101387.47;6154082;23;20009;-73
2022/03/01 09:45:23;;;;;;;0.00;0.00;;;;;;;9.48;78.24;101387.47;6182970;23;20013;-73
2022/03/01 09:47:49;;;;;;;0.00;0.00;;;;;;;9.50;78.06;101387.22;6156856;23;20013;-72
2022/03/01 09:50:15;;;;;;;0.00;0.00;;;;;;;9.54;78.01;101381.06;6183448;23;20001;-72
2022/03/01 09:52:43;;;;;;;0.00;0.00;;;;;;;9.56;78.37;101387.13;6154088;23;20013;-73
2022/03/01 09:55:10;;;;;;;0.00;0.00;;;;;;;9.57;77.74;101386.03;6183510;23;20123;-73
2022/03/01 09:57:36;;;;;;;0.00;0.00;;;;;;;9.57;77.97;101386.03;6184317;23;20005;-76
2022/03/01 10:00:03;;;;;;;0.00;0.00;;;;;;;9.60;77.93;101382.00;6185469;23;20005;-73
2022/03/01 10:02:36;;;;;;;0.00;0.00;;;;;;;9.67;78.20;101395.56;6183928;23;20001;-74
2022/03/01 10:05:05;;;;;;;0.00;0.00;;;;;;;9.70;77.57;101400.56;6186477;23;20005;-74
2022/03/01 10:07:32;;;;;;;0.00;0.00;;;;;;;9.70;77.36;101400.56;6156484;23;19996;-75
2022/03/01 10:10:16;;;;;;;0.00;0.00;;;;;;;9.65;77.43;101397.69;6158256;23;20088;-77
2022/03/01 10:12:44;;;;;;;0.00;0.00;;;;;;;9.68;77.05;101402.69;6182095;23;20005;-74
2022/03/01 10:15:13;;;;;;;0.00;0.00;;;;;;;9.69;77.14;101409.81;6162352;23;20005;-74
2022/03/01 10:17:44;;;;;;;0.00;0.00;;;;;;;9.69;76.74;101404.34;6187275;23;20332;-76
2022/03/01 10:20:18;;;;;;;0.00;0.00;;;;;;;9.72;76.88;101398.41;6186900;23;20428;-76
2022/03/01 10:22:46;;;;;;;0.00;0.00;;;;;;;9.71;77.11;101394.84;6159872;23;20412;-75
2022/03/01 10:25:13;;;;;;;0.00;0.00;;;;;;;9.74;77.08;101401.75;6157886;23;20044;-74
2022/03/01 10:27:39;;;;;;;0.00;0.00;;;;;;;9.74;76.61;101396.28;6161567;23;20009;-75
2022/03/01 10:30:06;;;;;;;0.00;0.00;;;;;;;9.76;76.52;101399.59;6186286;23;20001;-73
2022/03/01 10:32:33;;;;;;;0.00;0.00;;;;;;;9.73;76.74;101391.88;6187649;23;20491;-75
2022/03/01 10:35:07;;;;;;;0.00;0.00;;;;;;;9.73;76.41;101394.63;6162676;23;20013;-76
2022/03/01 10:37:35;;;;;;;0.00;0.00;;;;;;;9.73;76.53;101383.69;6186221;23;20335;-75
2022/03/01 10:40:20;;;;;;;0.00;0.00;;;;;;;9.72;76.51;101387.47;6188882;23;20059;-75
2022/03/01 10:43:07;;;;;;;0.00;0.00;;;;;;;9.71;76.19;101391.28;6188019;23;19997;-73
2022/03/01 10:45:47;;;;;;;0.00;0.00;;;;;;;9.74;77.06;101385.38;6186214;23;20076;-74
2022/03/01 10:48:25;;;;;;;0.00;0.00;;;;;;;9.80;76.72;101389.88;6184715;23;20005;-75
2022/03/01 10:51:01;;;;;;;0.00;0.00;;;;;;;9.84;76.58;101385.59;6186915;23;20383;-75
2022/03/01 10:53:39;;;;;;;0.00;0.00;;;;;;;9.84;76.42;101384.75;6186718;23;20001;-74
2022/03/01 10:56:08;;;;;;;0.00;0.00;;;;;;;9.83;76.35;101377.63;6160324;23;20005;-75
2022/03/01 10:58:37;;;;;;;0.00;0.00;;;;;;;9.87;76.47;101374.19;6188928;23;20473;-74
2022/03/01 11:01:07;;;;;;;0.00;0.00;;;;;;;9.94;76.48;101369.44;6160971;23;20093;-76
2022/03/01 11:03:33;;;;;;;0.00;0.00;;;;;;;9.96;75.97;101367.28;6137109;23;20068;-76
2022/03/01 11:05:58;;;;;;;0.00;0.00;;;;;;;9.99;76.04;101366.00;6161023;23;20041;-75
2022/03/01 11:08:36;;;;;;;0.00;0.00;;;;;;;10.01;75.98;101357.56;6163061;23;20024;-75
2022/03/01 11:11:04;;;;;;;0.00;0.00;;;;;;;10.06;76.42;101371.31;6163922;23;20012;-75
2022/03/01 11:13:33;;;;;;;0.00;0.00;;;;;;;10.09;75.79;101371.69;6160023;23;20032;-76
2022/03/01 11:16:24;;;;;;;0.00;0.00;;;;;;;10.13;75.99;101372.00;6159173;23;20036;-74
2022/03/01 11:19:03;;;;;;;0.00;0.00;;;;;;;10.11;76.05;101365.97;6184554;23;20620;-75
2022/03/01 11:21:34;;;;;;;0.00;0.00;;;;;;;10.13;75.67;101377.47;6154809;23;20447;-74
2022/03/01 11:24:00;;;;;;;0.00;0.00;;;;;;;10.15;75.45;101386.28;6184669;23;20019;-74
2022/03/01 11:26:36;;;;;;;0.10;0.10;;;;;;;10.14;75.62;101373.69;6182786;23;20043;-74
2022/03/01 11:29:07;;;;;;;0.00;0.00;;;;;;;10.11;76.01;101368.69;6184058;23;20080;-75
2022/03/01 11:31:35;;;;;;;0.00;0.00;;;;;;;10.09;76.00;101368.09;6187295;23;20005;-75
2022/03/01 11:34:07;;;;;;;0.00;0.00;;;;;;;10.11;75.17;101365.97;6158960;23;20005;-74
2022/03/01 11:36:33;;;;;;;0.00;0.00;;;;;;;10.09;75.02;101359.91;6186952;23;20013;-75